Time;durP1;ratioP1;P1;durP2;ratioP2;P2;SDS_P1;SDS_P2;PMS_P1;PMS_P2;Temp;Humidity;BMP_temperature;BMP_pressure;BME280_temperature;BME280_humidity;BME280_pressure;Samples;Min_cycle;Max_cycle;Signal;HPM_P1;HPM_P2
2022/05/16 00:01:57;;;;;;;3.80;1.53;;;;;;;;;;5098188;28;20237;-73
2022/05/16 00:04:25;;;;;;;5.33;1.57;;;;;;;;;;5098544;28;20240;-73
2022/05/16 00:06:53;;;;;;;5.50;1.53;;;;;;;;;;5098399;28;20224;-73
2022/05/16 00:09:21;;;;;;;3.17;1.27;;;;;;;;;;5098690;28;20238;-72
2022/05/16 00:11:51;;;;;;;4.33;1.73;;;;;;;;;;5098634;28;20296;-72
2022/05/16 00:14:19;;;;;;;5.53;1.60;;;;;;;;;;5098385;28;20216;-72
2022/05/16 00:16:47;;;;;;;3.83;1.50;;;;;;;;;;5095559;28;20316;-72
2022/05/16 00:19:15;;;;;;;8.63;2.30;;;;;;;;;;5096977;28;20206;-72
2022/05/16 00:21:43;;;;;;;2.87;1.43;;;;;;;;;;5097082;28;20201;-72
2022/05/16 00:24:11;;;;;;;2.57;1.53;;;;;;;;;;5097188;28;20277;-73
2022/05/16 00:26:40;;;;;;;3.90;1.40;;;;;;;;;;5096627;28;20259;-73
2022/05/16 00:29:09;;;;;;;3.43;1.80;;;;;;;;;;5097179;28;20254;-73
2022/05/16 00:31:38;;;;;;;4.67;1.60;;;;;;;;;;5096730;28;20225;-72
2022/05/16 00:34:06;;;;;;;7.90;2.00;;;;;;;;;;5094198;28;20231;-72
2022/05/16 00:36:34;;;;;;;4.93;1.90;;;;;;;;;;5097086;28;20610;-72
2022/05/16 00:39:02;;;;;;;7.30;1.87;;;;;;;;;;5097692;28;20239;-72
2022/05/16 00:41:30;;;;;;;6.77;3.00;;;;;;;;;;5098289;28;20247;-72
2022/05/16 00:43:59;;;;;;;15.03;1.80;;;;;;;;;;5097852;28;20236;-72
2022/05/16 00:46:30;;;;;;;4.33;1.90;;;;;;;;;;5097361;28;20225;-72
2022/05/16 00:48:58;;;;;;;4.87;1.70;;;;;;;;;;5097869;28;20229;-72
2022/05/16 00:51:28;;;;;;;4.60;1.80;;;;;;;;;;5097962;28;20229;-72
2022/05/16 00:53:57;;;;;;;7.40;1.70;;;;;;;;;;5097515;28;20630;-72
2022/05/16 00:56:27;;;;;;;6.00;1.77;;;;;;;;;;5097552;28;20226;-71
2022/05/16 00:58:55;;;;;;;5.43;1.50;;;;;;;;;;5097756;28;20645;-72
2022/05/16 01:06:58;;;;;;;5.17;1.70;;;;;;;;;;5097692;28;20285;-73
2022/05/16 01:09:27;;;;;;;3.93;1.70;;;;;;;;;;5097895;28;20243;-72
2022/05/16 01:11:55;;;;;;;6.77;2.07;;;;;;;;;;5097516;28;20233;-73
2022/05/16 01:14:40;;;;;;;4.67;1.80;;;;;;;;;;5097811;28;20210;-72
2022/05/16 01:17:08;;;;;;;5.60;1.70;;;;;;;;;;5097084;28;20697;-72
2022/05/16 01:19:38;;;;;;;3.73;1.67;;;;;;;;;;5097311;28;20648;-72
2022/05/16 01:22:08;;;;;;;3.00;1.80;;;;;;;;;;5097425;28;20237;-72
2022/05/16 01:24:38;;;;;;;5.50;1.90;;;;;;;;;;5097227;28;20684;-72
2022/05/16 01:27:06;;;;;;;7.20;1.90;;;;;;;;;;5097875;28;20285;-72
2022/05/16 01:29:34;;;;;;;5.97;2.00;;;;;;;;;;5097308;28;20234;-71
2022/05/16 01:32:02;;;;;;;3.00;1.70;;;;;;;;;;5097094;28;20307;-72
2022/05/16 01:34:30;;;;;;;6.87;2.07;;;;;;;;;;5097384;28;20233;-72
2022/05/16 01:36:58;;;;;;;3.07;1.70;;;;;;;;;;5097547;28;20319;-72
2022/05/16 01:39:26;;;;;;;3.90;1.60;;;;;;;;;;5097147;28;20629;-72
2022/05/16 01:41:56;;;;;;;5.67;1.80;;;;;;;;;;5097298;28;20227;-72
2022/05/16 01:44:24;;;;;;;6.60;1.90;;;;;;;;;;5097459;28;20247;-72
2022/05/16 01:46:52;;;;;;;4.73;1.80;;;;;;;;;;5096855;28;20672;-72
2022/05/16 01:49:20;;;;;;;4.83;1.67;;;;;;;;;;5097389;28;20258;-72
2022/05/16 01:51:48;;;;;;;4.03;1.80;;;;;;;;;;5097579;28;20236;-72
2022/05/16 01:54:16;;;;;;;4.17;2.13;;;;;;;;;;5097001;28;20238;-72
2022/05/16 01:56:45;;;;;;;6.93;1.73;;;;;;;;;;5097340;28;20227;-72
2022/05/16 01:59:14;;;;;;;3.33;1.67;;;;;;;;;;5097187;28;20235;-72
2022/05/16 02:01:42;;;;;;;4.00;1.90;;;;;;;;;;5096808;28;20278;-72
2022/05/16 02:04:10;;;;;;;4.30;1.77;;;;;;;;;;5097030;28;20215;-72
2022/05/16 02:06:38;;;;;;;4.77;1.63;;;;;;;;;;5097156;28;20280;-72
2022/05/16 02:09:07;;;;;;;5.40;2.10;;;;;;;;;;5097939;28;20257;-72
2022/05/16 02:11:35;;;;;;;5.57;1.83;;;;;;;;;;5100737;28;20668;-73
2022/05/16 02:14:03;;;;;;;3.13;1.87;;;;;;;;;;5100580;28;20206;-72
2022/05/16 02:16:32;;;;;;;3.93;1.60;;;;;;;;;;5100420;28;20258;-72
2022/05/16 02:19:00;;;;;;;4.93;1.80;;;;;;;;;;5100689;28;20229;-77
2022/05/16 02:26:59;;;;;;;5.93;2.03;;;;;;;;;;5100302;28;20284;-72
2022/05/16 02:29:27;;;;;;;3.07;1.73;;;;;;;;;;5100287;28;20261;-73
2022/05/16 02:31:57;;;;;;;7.37;2.00;;;;;;;;;;5100097;28;20237;-71
2022/05/16 02:34:25;;;;;;;3.90;1.60;;;;;;;;;;5100159;28;20700;-71
2022/05/16 02:36:53;;;;;;;6.07;1.80;;;;;;;;;;5087769;28;20285;-70
2022/05/16 02:39:21;;;;;;;3.67;1.97;;;;;;;;;;5099977;28;20612;-70
2022/05/16 02:41:49;;;;;;;7.30;2.03;;;;;;;;;;5100241;28;20729;-71
2022/05/16 02:44:17;;;;;;;6.00;1.83;;;;;;;;;;5100038;28;20237;-71
2022/05/16 02:46:45;;;;;;;6.53;1.77;;;;;;;;;;5100042;28;20264;-70
2022/05/16 02:49:21;;;;;;;5.77;1.60;;;;;;;;;;5100092;28;20257;-71
2022/05/16 02:51:50;;;;;;;7.87;2.60;;;;;;;;;;5100348;28;20210;-71
2022/05/16 02:54:18;;;;;;;4.70;2.00;;;;;;;;;;5099751;28;20695;-74
2022/05/16 02:56:46;;;;;;;3.97;1.70;;;;;;;;;;5099945;28;20670;-73
2022/05/16 02:59:14;;;;;;;9.27;2.00;;;;;;;;;;5099765;28;20294;-73
2022/05/16 03:01:41;;;;;;;5.80;1.60;;;;;;;;;;5099443;28;20338;-72
2022/05/16 03:04:10;;;;;;;6.07;2.03;;;;;;;;;;5099987;28;20260;-73
2022/05/16 03:06:39;;;;;;;3.90;1.80;;;;;;;;;;5099782;28;20271;-74
2022/05/16 03:09:07;;;;;;;8.57;2.20;;;;;;;;;;5099736;28;20228;-74
2022/05/16 03:11:35;;;;;;;12.13;2.60;;;;;;;;;;5099927;28;20245;-73
2022/05/16 03:14:03;;;;;;;4.63;2.70;;;;;;;;;;5099722;28;20275;-71
2022/05/16 03:16:31;;;;;;;6.77;2.90;;;;;;;;;;5099022;28;20249;-72
2022/05/16 03:18:59;;;;;;;6.77;3.50;;;;;;;;;;5099553;28;20266;-72
2022/05/16 03:21:27;;;;;;;10.77;3.67;;;;;;;;;;5099374;28;20252;-73
2022/05/16 03:23:56;;;;;;;9.60;3.50;;;;;;;;;;5099506;28;20246;-74
2022/05/16 03:26:24;;;;;;;6.97;2.83;;;;;;;;;;5099394;28;20267;-72
2022/05/16 03:28:52;;;;;;;11.03;3.83;;;;;;;;;;5099454;28;20262;-71
2022/05/16 03:31:20;;;;;;;8.93;3.33;;;;;;;;;;5098840;28;20656;-71
2022/05/16 03:33:48;;;;;;;7.57;3.50;;;;;;;;;;5099300;28;20300;-74
2022/05/16 03:36:22;;;;;;;12.60;3.47;;;;;;;;;;5086714;28;20257;-73
2022/05/16 03:41:37;;;;;;;7.43;2.43;;;;;;;;;;5099284;28;20209;-74
2022/05/16 03:44:05;;;;;;;9.30;3.20;;;;;;;;;;5099098;28;20237;-74
2022/05/16 03:46:33;;;;;;;9.30;2.67;;;;;;;;;;5098490;28;20256;-73
2022/05/16 03:49:01;;;;;;;4.97;2.67;;;;;;;;;;5098573;28;20268;-74
2022/05/16 03:51:29;;;;;;;9.27;3.93;;;;;;;;;;5098884;28;20237;-73
2022/05/16 03:53:57;;;;;;;5.50;2.53;;;;;;;;;;5098708;28;20225;-74
2022/05/16 03:56:26;;;;;;;9.60;2.53;;;;;;;;;;5098550;28;20615;-74
2022/05/16 03:58:56;;;;;;;6.77;2.47;;;;;;;;;;5098795;28;20206;-73
2022/05/16 04:01:24;;;;;;;4.83;2.70;;;;;;;;;;5098441;28;20268;-74
2022/05/16 04:03:53;;;;;;;7.47;2.70;;;;;;;;;;5098382;28;20621;-74
2022/05/16 04:06:21;;;;;;;8.30;2.53;;;;;;;;;;5098424;28;20256;-74
2022/05/16 04:08:49;;;;;;;9.17;2.93;;;;;;;;;;5098318;28;20257;-73
2022/05/16 04:11:18;;;;;;;8.53;2.40;;;;;;;;;;5098662;28;20240;-74
2022/05/16 04:13:46;;;;;;;5.47;2.70;;;;;;;;;;5098437;28;20289;-74
2022/05/16 04:16:16;;;;;;;7.73;2.30;;;;;;;;;;5098129;28;20256;-73
2022/05/16 04:18:46;;;;;;;6.17;2.93;;;;;;;;;;5098334;28;20204;-74
2022/05/16 04:21:14;;;;;;;9.60;4.80;;;;;;;;;;5096276;28;20213;-73
2022/05/16 04:23:42;;;;;;;8.67;3.67;;;;;;;;;;5096014;28;20235;-74
2022/05/16 04:26:10;;;;;;;5.20;2.77;;;;;;;;;;5097401;28;20225;-74
2022/05/16 04:28:38;;;;;;;10.33;3.60;;;;;;;;;;5097155;28;20266;-74
2022/05/16 04:31:06;;;;;;;4.27;3.27;;;;;;;;;;5097221;28;20554;-74
2022/05/16 04:33:35;;;;;;;4.80;3.03;;;;;;;;;;5097904;28;20244;-73
2022/05/16 04:36:04;;;;;;;5.97;2.80;;;;;;;;;;5084880;28;20254;-73
2022/05/16 04:38:32;;;;;;;6.30;3.30;;;;;;;;;;5097885;28;20237;-74
2022/05/16 04:43:45;;;;;;;10.87;3.77;;;;;;;;;;5097795;28;20233;-74
2022/05/16 04:46:13;;;;;;;7.63;3.17;;;;;;;;;;5097689;28;20256;-74
2022/05/16 04:48:43;;;;;;;10.07;3.23;;;;;;;;;;5097911;28;20262;-71
2022/05/16 04:51:11;;;;;;;6.43;3.33;;;;;;;;;;5097581;28;20229;-72
2022/05/16 04:53:39;;;;;;;8.20;3.27;;;;;;;;;;5096717;28;20681;-70
2022/05/16 04:56:07;;;;;;;8.97;3.23;;;;;;;;;;5097957;28;20261;-70
2022/05/16 04:58:35;;;;;;;9.27;2.77;;;;;;;;;;5097792;28;20212;-72
2022/05/16 05:01:04;;;;;;;6.93;3.17;;;;;;;;;;5097185;28;20229;-72
2022/05/16 05:03:32;;;;;;;9.90;3.40;;;;;;;;;;5097473;28;20240;-72
2022/05/16 05:06:02;;;;;;;6.80;3.03;;;;;;;;;;5097885;28;20241;-72
2022/05/16 05:08:30;;;;;;;6.93;2.77;;;;;;;;;;5097429;28;20237;-71
2022/05/16 05:16:29;;;;;;;6.63;2.90;;;;;;;;;;5097040;28;20255;-72
2022/05/16 05:18:58;;;;;;;6.50;2.63;;;;;;;;;;5097134;28;20570;-64
2022/05/16 05:21:27;;;;;;;9.03;3.50;;;;;;;;;;5097610;28;20205;-63
2022/05/16 05:24:00;;;;;;;6.07;2.93;;;;;;;;;;5097591;28;20236;-64
2022/05/16 05:26:28;;;;;;;6.80;3.07;;;;;;;;;;5097452;28;20232;-63
2022/05/16 05:28:56;;;;;;;8.37;3.27;;;;;;;;;;5097571;28;20206;-64
2022/05/16 05:31:25;;;;;;;7.27;2.87;;;;;;;;;;5096902;28;20278;-63
2022/05/16 05:33:54;;;;;;;7.07;3.40;;;;;;;;;;5097177;28;20222;-63
2022/05/16 05:36:22;;;;;;;6.10;3.00;;;;;;;;;;5083663;28;20696;-63
2022/05/16 05:38:51;;;;;;;7.63;3.20;;;;;;;;;;5097497;28;20202;-64
2022/05/16 05:41:21;;;;;;;6.60;2.97;;;;;;;;;;5097236;28;20601;-64
2022/05/16 05:43:49;;;;;;;7.00;3.10;;;;;;;;;;5097204;28;20273;-63
2022/05/16 05:46:17;;;;;;;8.00;3.07;;;;;;;;;;5100409;28;20651;-64
2022/05/16 05:48:45;;;;;;;11.63;4.03;;;;;;;;;;5097857;28;20206;-64
2022/05/16 05:51:14;;;;;;;7.57;3.40;;;;;;;;;;5100093;28;20225;-62
2022/05/16 05:53:42;;;;;;;8.87;3.23;;;;;;;;;;5100426;28;20350;-61
2022/05/16 05:56:13;;;;;;;7.03;2.80;;;;;;;;;;5100656;28;20221;-61
2022/05/16 05:58:40;;;;;;;8.40;3.50;;;;;;;;;;5100470;28;20225;-62
2022/05/16 06:01:09;;;;;;;6.53;3.23;;;;;;;;;;5099792;28;20253;-61
2022/05/16 06:03:37;;;;;;;7.53;2.97;;;;;;;;;;5100540;28;20200;-61
2022/05/16 06:06:05;;;;;;;6.50;2.87;;;;;;;;;;5087570;28;20260;-60
2022/05/16 06:08:33;;;;;;;5.60;2.90;;;;;;;;;;5097140;28;20240;-71
2022/05/16 06:11:01;;;;;;;6.50;3.07;;;;;;;;;;5088320;28;20251;-72
2022/05/16 06:13:31;;;;;;;6.40;2.60;;;;;;;;;;5090659;28;20232;-72
2022/05/16 06:15:59;;;;;;;4.80;2.87;;;;;;;;;;5096119;28;20257;-71
2022/05/16 06:18:27;;;;;;;7.10;2.60;;;;;;;;;;5086980;28;20201;-72
2022/05/16 06:20:55;;;;;;;6.20;2.90;;;;;;;;;;5099868;28;20221;-71
2022/05/16 06:23:23;;;;;;;5.67;2.70;;;;;;;;;;5099867;28;20229;-72
2022/05/16 06:25:51;;;;;;;3.90;1.80;;;;;;;;;;5099061;28;20249;-71
2022/05/16 06:28:20;;;;;;;6.50;1.83;;;;;;;;;;5099697;28;20225;-70
2022/05/16 06:30:51;;;;;;;6.00;2.73;;;;;;;;;;5097861;28;20254;-71
2022/05/16 06:33:20;;;;;;;6.10;2.50;;;;;;;;;;5097019;28;20247;-69
2022/05/16 06:35:49;;;;;;;5.77;2.43;;;;;;;;;;5099408;28;20221;-71
2022/05/16 06:38:20;;;;;;;4.43;2.30;;;;;;;;;;5096971;28;20197;-70
2022/05/16 06:40:49;;;;;;;5.70;2.57;;;;;;;;;;5099848;28;20198;-70
2022/05/16 06:43:18;;;;;;;8.07;2.47;;;;;;;;;;5096975;28;20258;-70
2022/05/16 06:45:46;;;;;;;7.17;2.40;;;;;;;;;;5099086;28;20642;-71
2022/05/16 06:48:15;;;;;;;3.33;1.83;;;;;;;;;;5099109;28;20240;-72
2022/05/16 06:50:44;;;;;;;5.43;2.73;;;;;;;;;;5099578;28;20256;-71
2022/05/16 06:53:12;;;;;;;4.53;1.97;;;;;;;;;;5099083;28;20225;-71
2022/05/16 06:55:40;;;;;;;5.67;2.43;;;;;;;;;;5098923;28;20252;-71
2022/05/16 06:58:08;;;;;;;6.10;1.80;;;;;;;;;;5099403;28;20236;-71
2022/05/16 07:00:36;;;;;;;7.93;2.13;;;;;;;;;;5096768;28;20194;-72
2022/05/16 07:03:05;;;;;;;3.07;1.80;;;;;;;;;;5098776;28;20663;-72
2022/05/16 07:05:50;;;;;;;3.40;2.13;;;;;;;;;;5098520;28;20217;-72
2022/05/16 07:08:20;;;;;;;4.00;1.90;;;;;;;;;;5099209;28;20205;-72
2022/05/16 07:10:49;;;;;;;4.43;2.10;;;;;;;;;;5099504;28;20255;-73
2022/05/16 07:13:22;;;;;;;4.13;1.70;;;;;;;;;;5099353;28;20682;-73
2022/05/16 07:15:50;;;;;;;7.30;2.30;;;;;;;;;;5099284;28;20294;-74
2022/05/16 07:18:18;;;;;;;4.23;2.00;;;;;;;;;;5099425;28;20225;-73
2022/05/16 07:20:46;;;;;;;3.87;1.80;;;;;;;;;;5098906;28;20201;-75
2022/05/16 07:23:16;;;;;;;6.37;2.37;;;;;;;;;;5098909;28;20198;-74
2022/05/16 07:28:29;;;;;;;4.83;2.63;;;;;;;;;;5098865;28;20646;-73
2022/05/16 07:30:57;;;;;;;3.80;2.57;;;;;;;;;;5098485;28;20250;-76
2022/05/16 07:33:25;;;;;;;3.13;1.90;;;;;;;;;;5095878;28;20236;-73
2022/05/16 07:35:55;;;;;;;7.03;2.30;;;;;;;;;;5096087;28;20795;-72
2022/05/16 07:38:25;;;;;;;7.63;2.37;;;;;;;;;;5097294;28;20228;-72
2022/05/16 07:40:54;;;;;;;4.23;1.83;;;;;;;;;;5098408;28;20197;-72
2022/05/16 07:43:22;;;;;;;8.23;2.30;;;;;;;;;;5097938;28;20236;-72
2022/05/16 07:45:50;;;;;;;7.73;2.60;;;;;;;;;;5098075;28;20221;-73
2022/05/16 07:48:18;;;;;;;6.27;2.60;;;;;;;;;;5098303;28;20202;-75
2022/05/16 07:50:48;;;;;;;6.47;2.20;;;;;;;;;;5098314;28;20285;-74
2022/05/16 07:53:16;;;;;;;6.90;2.03;;;;;;;;;;5095855;28;20250;-75
2022/05/16 07:55:47;;;;;;;7.87;2.70;;;;;;;;;;5097841;28;20253;-77
2022/05/16 07:58:15;;;;;;;7.10;2.50;;;;;;;;;;5098505;28;20241;-74
2022/05/16 08:00:43;;;;;;;11.17;2.70;;;;;;;;;;5098070;28;20282;-71
2022/05/16 08:03:12;;;;;;;6.90;2.37;;;;;;;;;;5087010;28;20668;-76
2022/05/16 08:05:40;;;;;;;6.53;1.97;;;;;;;;;;5098990;28;20312;-76
2022/05/16 08:10:56;;;;;;;4.27;1.77;;;;;;;;;;5096260;28;20241;-75
2022/05/16 08:13:24;;;;;;;9.27;2.20;;;;;;;;;;5098035;28;20255;-75
2022/05/16 08:15:52;;;;;;;6.87;2.20;;;;;;;;;;5097949;28;20236;-75
2022/05/16 08:18:20;;;;;;;4.00;2.27;;;;;;;;;;5098391;28;20209;-76
2022/05/16 08:20:50;;;;;;;7.67;2.23;;;;;;;;;;5098054;28;20560;-74
2022/05/16 08:23:22;;;;;;;7.33;2.47;;;;;;;;;;5093997;28;20715;-75
2022/05/16 08:25:50;;;;;;;5.70;1.60;;;;;;;;;;5098015;28;20701;-74
2022/05/16 08:28:20;;;;;;;7.87;2.17;;;;;;;;;;5097054;28;20310;-74
2022/05/16 08:30:48;;;;;;;5.53;2.30;;;;;;;;;;5096997;28;20206;-76
2022/05/16 08:33:16;;;;;;;4.23;1.90;;;;;;;;;;5098008;28;20240;-74
2022/05/16 08:35:44;;;;;;;5.03;2.60;;;;;;;;;;5097549;28;20701;-73
2022/05/16 08:40:59;;;;;;;6.47;2.70;;;;;;;;;;5097825;28;20236;-76
2022/05/16 08:43:42;;;;;;;5.30;1.77;;;;;;;;;;5097876;28;20243;-76
2022/05/16 08:46:17;;;;;;;3.43;1.93;;;;;;;;;;5084818;28;20254;-75
2022/05/16 08:48:49;;;;;;;2.90;2.60;;;;;;;;;;5097438;28;20223;-77
2022/05/16 08:51:21;;;;;;;4.43;2.00;;;;;;;;;;5101242;28;20309;-74
2022/05/16 08:53:51;;;;;;;8.03;3.00;;;;;;;;;;5103813;28;20214;-73
2022/05/16 08:56:22;;;;;;;6.60;3.07;;;;;;;;;;5096014;28;20562;-75
2022/05/16 08:58:52;;;;;;;7.43;2.30;;;;;;;;;;5096585;28;20278;-75
2022/05/16 09:01:26;;;;;;;5.03;2.23;;;;;;;;;;5093612;28;20225;-76
2022/05/16 09:03:55;;;;;;;5.20;2.57;;;;;;;;;;5095933;28;20668;-77
2022/05/16 09:06:33;;;;;;;8.70;2.63;;;;;;;;;;5095270;28;20229;-69
2022/05/16 09:09:05;;;;;;;7.37;2.53;;;;;;;;;;5097185;28;20224;-68
2022/05/16 09:11:39;;;;;;;6.37;2.00;;;;;;;;;;5094846;28;20226;-70
2022/05/16 09:14:08;;;;;;;9.93;2.67;;;;;;;;;;5097384;28;20261;-73
2022/05/16 09:16:41;;;;;;;6.20;1.93;;;;;;;;;;5096705;28;20230;-73
2022/05/16 09:19:27;;;;;;;7.00;2.50;;;;;;;;;;5100033;28;20660;-74
2022/05/16 09:22:00;;;;;;;6.07;2.43;;;;;;;;;;5089228;28;20203;-75
2022/05/16 09:24:35;;;;;;;4.57;2.30;;;;;;;;;;5101553;28;20201;-75
2022/05/16 09:27:05;;;;;;;7.53;2.03;;;;;;;;;;5101567;28;20282;-74
2022/05/16 09:29:37;;;;;;;4.57;2.20;;;;;;;;;;5101484;28;20220;-75
2022/05/16 09:32:10;;;;;;;6.77;2.20;;;;;;;;;;5100821;28;20234;-73
2022/05/16 09:34:38;;;;;;;7.77;2.30;;;;;;;;;;5099620;28;20208;-73
2022/05/16 09:37:06;;;;;;;5.37;2.30;;;;;;;;;;5093879;28;20237;-74
2022/05/16 09:39:35;;;;;;;3.70;2.10;;;;;;;;;;5101200;28;20329;-74
2022/05/16 09:42:05;;;;;;;7.87;2.47;;;;;;;;;;5100796;28;20201;-72
2022/05/16 09:44:34;;;;;;;5.07;1.87;;;;;;;;;;5101085;28;20213;-75
2022/05/16 09:47:21;;;;;;;3.77;2.00;;;;;;;;;;5100837;28;20233;-74
2022/05/16 09:50:15;;;;;;;6.63;2.53;;;;;;;;;;5100822;28;20611;-74
2022/05/16 09:52:46;;;;;;;6.80;2.20;;;;;;;;;;5092537;28;20726;-75
2022/05/16 09:55:16;;;;;;;4.17;1.80;;;;;;;;;;5100980;28;20260;-75
2022/05/16 09:57:48;;;;;;;3.13;1.87;;;;;;;;;;5100379;28;20233;-77
2022/05/16 10:00:21;;;;;;;8.63;2.30;;;;;;;;;;5100232;28;20682;-66
2022/05/16 10:03:01;;;;;;;5.60;2.93;;;;;;;;;;5099937;28;20257;-66
2022/05/16 10:05:31;;;;;;;7.77;3.23;;;;;;;;;;5100494;28;20223;-66
2022/05/16 10:08:01;;;;;;;3.33;2.40;;;;;;;;;;5099892;28;20206;-66
2022/05/16 10:10:32;;;;;;;3.40;1.97;;;;;;;;;;5100491;28;20223;-66
2022/05/16 10:13:00;;;;;;;5.40;2.00;;;;;;;;;;5100381;28;20231;-66
2022/05/16 10:15:28;;;;;;;8.53;1.93;;;;;;;;;;5100107;28;20259;-66
2022/05/16 10:17:59;;;;;;;2.77;1.73;;;;;;;;;;5100012;28;20205;-67
2022/05/16 10:20:28;;;;;;;3.53;2.07;;;;;;;;;;5105860;28;20260;-66
2022/05/16 10:22:58;;;;;;;7.73;2.17;;;;;;;;;;5099235;28;20239;-66
2022/05/16 10:25:34;;;;;;;4.37;2.27;;;;;;;;;;5099939;28;20307;-67
2022/05/16 10:28:04;;;;;;;5.63;2.20;;;;;;;;;;5099741;28;20207;-67
2022/05/16 10:33:24;;;;;;;7.77;2.50;;;;;;;;;;5099228;28;20234;-66
2022/05/16 10:33:26;;;;;;;6.07;2.60;;;;;;;;;;5100238;28;20233;-67
2022/05/16 10:35:57;;;;;;;3.97;1.87;;;;;;;;;;5099797;28;20233;-67
2022/05/16 10:38:33;;;;;;;5.53;1.90;;;;;;;;;;5098878;28;20210;-67
2022/05/16 10:41:03;;;;;;;2.77;1.93;;;;;;;;;;5098509;28;20204;-67
2022/05/16 10:43:36;;;;;;;6.43;2.10;;;;;;;;;;5099766;28;20206;-67
2022/05/16 10:46:07;;;;;;;5.03;1.83;;;;;;;;;;5098950;28;20256;-68
2022/05/16 10:48:41;;;;;;;2.43;1.80;;;;;;;;;;5099149;28;20230;-68
2022/05/16 10:51:12;;;;;;;2.70;2.13;;;;;;;;;;5096862;28;20667;-70
2022/05/16 10:53:45;;;;;;;5.00;2.00;;;;;;;;;;5095937;28;20221;-71
2022/05/16 10:56:23;;;;;;;8.33;1.73;;;;;;;;;;5099954;28;20271;-71
2022/05/16 10:58:54;;;;;;;3.93;1.70;;;;;;;;;;5087476;28;20211;-71
2022/05/16 11:01:22;;;;;;;8.07;2.37;;;;;;;;;;5098908;28;20604;-68
2022/05/16 11:04:10;;;;;;;5.53;2.13;;;;;;;;;;5099587;28;20233;-68
2022/05/16 11:06:56;;;;;;;6.83;2.00;;;;;;;;;;5098741;28;20225;-80
2022/05/16 11:09:30;;;;;;;3.47;2.00;;;;;;;;;;5098305;28;20231;-80
2022/05/16 11:12:01;;;;;;;3.10;1.77;;;;;;;;;;5098774;28;20211;-80
2022/05/16 11:14:30;;;;;;;7.73;2.57;;;;;;;;;;5095872;28;20275;-80
2022/05/16 11:17:04;;;;;;;7.53;2.23;;;;;;;;;;5097435;28;20252;-80
2022/05/16 11:19:41;;;;;;;8.23;2.67;;;;;;;;;;5098062;28;20280;-81
2022/05/16 11:22:13;;;;;;;3.60;1.80;;;;;;;;;;5096542;28;20239;-80
2022/05/16 11:24:44;;;;;;;3.50;2.20;;;;;;;;;;5097836;28;20601;-81
2022/05/16 11:27:22;;;;;;;6.13;2.30;;;;;;;;;;5098131;28;20218;-80
2022/05/16 11:29:55;;;;;;;3.97;2.23;;;;;;;;;;5096396;28;20676;-80
2022/05/16 11:32:29;;;;;;;4.00;2.03;;;;;;;;;;5095002;28;20633;-81
2022/05/16 11:35:03;;;;;;;4.73;1.73;;;;;;;;;;5097633;28;20207;-81
2022/05/16 11:37:39;;;;;;;6.17;3.10;;;;;;;;;;5096959;28;20691;-80
2022/05/16 11:40:11;;;;;;;7.93;2.30;;;;;;;;;;5092355;28;20195;-80
2022/05/16 11:42:42;;;;;;;7.33;1.83;;;;;;;;;;5097655;28;20212;-79
2022/05/16 11:45:21;;;;;;;6.50;2.20;;;;;;;;;;5098763;28;20207;-79
2022/05/16 11:47:52;;;;;;;4.93;2.07;;;;;;;;;;5098782;28;20253;-80
2022/05/16 11:50:47;;;;;;;3.80;1.80;;;;;;;;;;5098818;28;20272;-79
2022/05/16 11:53:27;;;;;;;4.50;2.20;;;;;;;;;;5097905;28;20234;-79
2022/05/16 12:01:31;;;;;;;4.10;1.83;;;;;;;;;;5098082;28;20260;-83
2022/05/16 12:04:07;;;;;;;3.63;1.93;;;;;;;;;;5098555;28;20205;-82
2022/05/16 12:06:37;;;;;;;4.73;2.10;;;;;;;;;;5098460;28;20303;-82
2022/05/16 12:09:15;;;;;;;5.67;2.23;;;;;;;;;;5098321;28;20231;-83
2022/05/16 12:11:55;;;;;;;5.60;2.50;;;;;;;;;;5098376;28;20652;-83
2022/05/16 12:14:29;;;;;;;3.00;1.90;;;;;;;;;;5098305;28;20275;-83
2022/05/16 12:17:02;;;;;;;4.10;1.70;;;;;;;;;;5097778;28;20221;-82
2022/05/16 12:19:34;;;;;;;11.43;2.40;;;;;;;;;;5098194;28;20287;-81
2022/05/16 12:22:06;;;;;;;5.37;2.00;;;;;;;;;;5098203;28;20221;-83
2022/05/16 12:24:58;;;;;;;6.33;2.10;;;;;;;;;;5097843;28;20253;-82
2022/05/16 12:27:27;;;;;;;10.17;4.80;;;;;;;;;;5095473;28;20275;-83
2022/05/16 12:29:57;;;;;;;6.00;2.20;;;;;;;;;;5097955;28;20221;-82
2022/05/16 12:32:45;;;;;;;6.73;2.50;;;;;;;;;;5097355;28;20565;-82
2022/05/16 12:35:14;;;;;;;6.70;2.73;;;;;;;;;;5097247;28;20258;-81
2022/05/16 12:37:44;;;;;;;10.53;2.47;;;;;;;;;;5097898;28;20206;-81
2022/05/16 12:40:20;;;;;;;4.30;2.50;;;;;;;;;;5098085;28;20211;-83
2022/05/16 12:43:06;;;;;;;4.10;2.10;;;;;;;;;;5097982;28;20214;-80
2022/05/16 12:45:46;;;;;;;2.67;1.97;;;;;;;;;;5087460;28;20715;-80
2022/05/16 12:48:29;;;;;;;3.00;1.97;;;;;;;;;;5102415;28;20204;-82
2022/05/16 12:51:07;;;;;;;4.90;2.40;;;;;;;;;;5095467;28;20204;-83
2022/05/16 12:54:03;;;;;;;5.67;1.90;;;;;;;;;;5097074;28;20257;-80
2022/05/16 12:56:34;;;;;;;3.80;1.93;;;;;;;;;;5096995;28;20257;-83
2022/05/16 12:59:05;;;;;;;4.27;2.13;;;;;;;;;;5096882;28;20293;-79
2022/05/16 13:01:35;;;;;;;3.63;2.07;;;;;;;;;;5096889;28;20678;-80
2022/05/16 13:04:09;;;;;;;6.17;2.47;;;;;;;;;;5097363;28;20231;-81
2022/05/16 13:06:40;;;;;;;5.23;2.60;;;;;;;;;;5097508;28;20232;-79
2022/05/16 13:09:15;;;;;;;7.63;2.10;;;;;;;;;;5097415;28;20216;-80
2022/05/16 13:11:47;;;;;;;2.87;1.73;;;;;;;;;;5095296;28;20206;-80
2022/05/16 13:14:20;;;;;;;2.97;2.03;;;;;;;;;;5097165;28;20254;-81
2022/05/16 13:16:53;;;;;;;6.27;2.00;;;;;;;;;;5094407;28;20224;-82
2022/05/16 13:19:23;;;;;;;4.07;2.00;;;;;;;;;;5097529;28;20207;-80
2022/05/16 13:21:52;;;;;;;4.97;2.37;;;;;;;;;;5096565;28;20568;-78
2022/05/16 13:24:22;;;;;;;7.50;1.87;;;;;;;;;;5097119;28;20229;-79
2022/05/16 13:29:56;;;;;;;6.13;2.27;;;;;;;;;;5094759;28;20305;-79
2022/05/16 13:32:29;;;;;;;6.63;2.10;;;;;;;;;;5096522;28;20640;-78
2022/05/16 13:34:58;;;;;;;2.83;1.77;;;;;;;;;;5094024;28;20221;-81
2022/05/16 13:37:27;;;;;;;3.27;2.03;;;;;;;;;;5096352;28;20242;-78
2022/05/16 13:39:57;;;;;;;6.00;2.70;;;;;;;;;;5096086;28;20283;-81
2022/05/16 13:42:25;;;;;;;4.73;2.40;;;;;;;;;;5097058;28;20226;-82
2022/05/16 13:44:57;;;;;;;9.43;3.00;;;;;;;;;;5096557;28;20279;-81
2022/05/16 13:47:26;;;;;;;5.17;2.13;;;;;;;;;;5096021;28;20643;-81
2022/05/16 13:49:54;;;;;;;4.60;2.37;;;;;;;;;;5096278;28;20199;-78
2022/05/16 13:52:24;;;;;;;5.13;2.10;;;;;;;;;;5096585;28;20203;-80
2022/05/16 13:54:52;;;;;;;5.30;1.90;;;;;;;;;;5096583;28;20227;-81
2022/05/16 13:57:23;;;;;;;9.03;2.53;;;;;;;;;;5094279;28;20230;-80
2022/05/16 14:00:06;;;;;;;4.80;2.10;;;;;;;;;;5095922;28;20246;-80
2022/05/16 14:02:35;;;;;;;4.07;2.20;;;;;;;;;;5095503;28;20290;-80
2022/05/16 14:05:07;;;;;;;6.23;2.57;;;;;;;;;;5097187;28;20200;-80
2022/05/16 14:07:35;;;;;;;5.20;2.23;;;;;;;;;;5099871;28;20671;-80
2022/05/16 14:10:05;;;;;;;3.77;2.07;;;;;;;;;;5100209;28;20266;-79
2022/05/16 14:12:38;;;;;;;7.07;2.10;;;;;;;;;;5100365;28;20204;-80
2022/05/16 14:15:07;;;;;;;8.70;2.67;;;;;;;;;;5098149;28;20270;-80
2022/05/16 14:17:38;;;;;;;6.70;2.10;;;;;;;;;;5099781;28;20205;-80
2022/05/16 14:20:15;;;;;;;8.30;2.60;;;;;;;;;;5100278;28;20230;-78
2022/05/16 14:22:47;;;;;;;8.07;2.70;;;;;;;;;;5099803;28;20717;-80
2022/05/16 14:25:26;;;;;;;4.53;2.30;;;;;;;;;;5097458;28;20202;-81
2022/05/16 14:28:00;;;;;;;9.73;2.50;;;;;;;;;;5099988;28;20206;-77
2022/05/16 14:30:29;;;;;;;5.30;2.47;;;;;;;;;;5099528;28;20195;-78
2022/05/16 14:33:03;;;;;;;8.20;2.37;;;;;;;;;;5099782;28;20209;-80
2022/05/16 14:35:31;;;;;;;5.83;2.33;;;;;;;;;;5099478;28;20225;-79
2022/05/16 14:38:02;;;;;;;5.10;2.40;;;;;;;;;;5099388;28;20216;-79
2022/05/16 14:40:35;;;;;;;7.77;2.73;;;;;;;;;;5099204;28;20202;-81
2022/05/16 14:43:07;;;;;;;3.97;2.20;;;;;;;;;;5097321;28;20215;-79
2022/05/16 14:48:31;;;;;;;3.93;2.30;;;;;;;;;;5099824;28;20294;-81
2022/05/16 14:51:00;;;;;;;3.20;2.10;;;;;;;;;;5099643;28;20684;-80
2022/05/16 14:53:28;;;;;;;4.27;2.33;;;;;;;;;;5099655;28;20267;-78
2022/05/16 14:55:57;;;;;;;3.37;2.23;;;;;;;;;;5099846;28;20227;-81
2022/05/16 14:58:27;;;;;;;13.07;3.47;;;;;;;;;;5088370;28;20684;-81
2022/05/16 15:06:27;;;;;;;6.23;2.37;;;;;;;;;;5099338;28;20718;-81
2022/05/16 15:08:56;;;;;;;8.10;2.30;;;;;;;;;;5099294;28;20279;-81
2022/05/16 15:11:26;;;;;;;14.73;2.83;;;;;;;;;;5099355;28;20674;-81
2022/05/16 15:13:56;;;;;;;3.60;2.20;;;;;;;;;;5099723;28;20212;-77
2022/05/16 15:16:24;;;;;;;7.57;2.33;;;;;;;;;;5099513;28;20300;-79
2022/05/16 15:18:54;;;;;;;5.77;2.20;;;;;;;;;;5100454;28;20204;-81
2022/05/16 15:21:23;;;;;;;4.60;2.00;;;;;;;;;;5099356;28;20239;-78
2022/05/16 15:23:51;;;;;;;5.83;2.20;;;;;;;;;;5098907;28;20208;-79
2022/05/16 15:26:20;;;;;;;4.53;2.53;;;;;;;;;;5099399;28;20262;-78
2022/05/16 15:28:48;;;;;;;4.27;2.67;;;;;;;;;;5099081;28;20244;-78
2022/05/16 15:31:17;;;;;;;5.70;2.63;;;;;;;;;;5099052;28;20631;-78
2022/05/16 15:33:45;;;;;;;4.40;2.40;;;;;;;;;;5099219;28;20208;-80
2022/05/16 15:36:18;;;;;;;8.20;2.70;;;;;;;;;;5098676;28;20235;-80
2022/05/16 15:38:48;;;;;;;5.50;2.20;;;;;;;;;;5098778;28;20235;-80
2022/05/16 15:41:16;;;;;;;4.90;2.60;;;;;;;;;;5098614;28;20254;-79
2022/05/16 15:43:44;;;;;;;8.77;2.07;;;;;;;;;;5098952;28;20208;-80
2022/05/16 15:46:13;;;;;;;5.50;2.13;;;;;;;;;;5098676;28;20248;-79
2022/05/16 15:48:43;;;;;;;5.00;2.00;;;;;;;;;;5098746;28;20208;-79
2022/05/16 15:51:11;;;;;;;3.67;2.43;;;;;;;;;;5098838;28;20231;-79